createdAt,value
2019-02-10T00:01:29.020Z,7.18
2019-02-10T00:03:55.579Z,7.14
2019-02-10T00:06:24.831Z,7.11
2019-02-10T00:08:50.948Z,7.12
2019-02-10T00:11:17.500Z,7.14
2019-02-10T00:13:44.024Z,7.21
2019-02-10T00:16:13.156Z,7.23
2019-02-10T00:18:39.677Z,7.23
2019-02-10T00:21:06.240Z,7.18
2019-02-10T00:23:32.776Z,7.11
2019-02-10T00:25:59.307Z,7.17
2019-02-10T00:28:25.847Z,7.19
2019-02-10T00:30:52.378Z,7.18
2019-02-10T00:33:18.933Z,7.10
2019-02-10T00:35:45.464Z,7.04
2019-02-10T00:38:12.847Z,7.00
2019-02-10T00:40:39.410Z,6.87
2019-02-10T00:43:05.964Z,6.92
2019-02-10T00:45:32.518Z,6.84
2019-02-10T00:47:59.049Z,6.81
2019-02-10T00:50:25.606Z,6.79
2019-02-10T00:52:52.173Z,6.75
2019-02-10T00:55:18.745Z,6.72
2019-02-10T00:57:45.280Z,6.69
2019-02-10T01:00:12.422Z,6.77
2019-02-10T01:02:38.975Z,6.74
2019-02-10T01:05:05.506Z,6.71
2019-02-10T01:07:32.068Z,6.68
2019-02-10T01:09:58.639Z,6.73
2019-02-10T01:12:25.198Z,6.75
2019-02-10T01:14:52.078Z,6.75
2019-02-10T01:17:18.638Z,6.70
2019-02-10T01:19:45.178Z,6.71
2019-02-10T01:22:11.719Z,6.62
2019-02-10T01:24:38.284Z,6.58
2019-02-10T01:27:05.115Z,6.56
2019-02-10T01:29:31.657Z,6.64
2019-02-10T01:31:58.210Z,6.70
2019-02-10T01:34:24.774Z,6.64
2019-02-10T01:36:51.312Z,6.56
2019-02-10T01:39:19.383Z,6.47
2019-02-10T01:41:45.909Z,6.41
2019-02-10T01:44:12.488Z,6.39
2019-02-10T01:46:39.009Z,6.40
2019-02-10T01:49:05.563Z,6.45
2019-02-10T01:51:32.093Z,6.48
2019-02-10T01:53:58.650Z,6.54
2019-02-10T01:56:25.206Z,6.64
2019-02-10T01:58:51.746Z,6.61
2019-02-10T02:01:18.304Z,6.64
2019-02-10T02:03:44.877Z,6.78
2019-02-10T02:06:11.405Z,6.68
2019-02-10T02:08:37.953Z,6.62
2019-02-10T02:11:04.532Z,6.74
2019-02-10T02:13:31.061Z,6.72
2019-02-10T02:15:57.638Z,6.64
2019-02-10T02:18:24.175Z,6.73
2019-02-10T02:20:50.742Z,6.71
2019-02-10T02:23:17.303Z,6.65
2019-02-10T02:25:43.869Z,6.63
2019-02-10T02:28:10.445Z,6.58
2019-02-10T02:30:37.018Z,6.44
2019-02-10T02:33:03.582Z,6.38
2019-02-10T02:35:30.136Z,6.31
2019-02-10T02:37:56.735Z,6.19
2019-02-10T02:40:23.281Z,6.27
2019-02-10T02:42:49.864Z,6.26
2019-02-10T02:45:16.446Z,6.26
2019-02-10T02:47:44.186Z,6.32
2019-02-10T02:50:10.741Z,6.33
2019-02-10T02:52:37.408Z,6.32
2019-02-10T02:55:04.404Z,6.40
2019-02-10T02:57:30.950Z,6.44
2019-02-10T02:59:57.566Z,6.47
2019-02-10T03:02:24.090Z,6.52
2019-02-10T03:04:50.650Z,6.61
2019-02-10T03:07:18.308Z,6.51
2019-02-10T03:09:47.174Z,6.54
2019-02-10T03:12:13.815Z,6.55
2019-02-10T03:14:40.374Z,6.56
2019-02-10T03:17:06.934Z,6.53
2019-02-10T03:19:33.491Z,6.58
2019-02-10T03:22:00.051Z,6.67
2019-02-10T03:24:26.586Z,6.73
2019-02-10T03:26:53.148Z,6.68
2019-02-10T03:29:19.701Z,6.65
2019-02-10T03:31:46.284Z,6.63
2019-02-10T03:34:13.622Z,6.63
2019-02-10T03:36:40.209Z,6.56
2019-02-10T03:39:06.769Z,6.64
2019-02-10T03:41:33.355Z,6.69
2019-02-10T03:43:59.908Z,6.76
2019-02-10T03:46:26.467Z,6.74
2019-02-10T03:48:53.295Z,6.76
2019-02-10T03:51:19.862Z,6.72
2019-02-10T03:53:46.722Z,6.68
2019-02-10T03:56:13.309Z,6.74
2019-02-10T03:58:42.386Z,6.70
2019-02-10T04:01:11.086Z,6.70
2019-02-10T04:03:37.688Z,6.66
2019-02-10T04:06:23.882Z,6.54
2019-02-10T04:08:50.408Z,6.49
2019-02-10T04:11:16.991Z,6.44
2019-02-10T04:13:43.528Z,6.38
2019-02-10T04:16:10.173Z,6.41
2019-02-10T04:18:36.705Z,6.40
2019-02-10T04:21:03.245Z,6.40
2019-02-10T04:23:29.806Z,6.38
2019-02-10T04:25:56.355Z,6.35
2019-02-10T04:28:22.926Z,6.38
2019-02-10T04:30:49.441Z,6.45
2019-02-10T04:33:16.002Z,6.51
2019-02-10T04:35:42.547Z,6.51
2019-02-10T04:38:09.096Z,6.50
2019-02-10T04:40:35.642Z,6.52
2019-02-10T04:43:02.194Z,6.50
2019-02-10T04:45:28.724Z,6.42
2019-02-10T04:47:55.298Z,6.30
2019-02-10T04:50:21.837Z,6.27
2019-02-10T04:52:48.409Z,6.14
2019-02-10T04:55:14.949Z,6.10
2019-02-10T04:57:41.511Z,5.98
2019-02-10T05:00:08.112Z,5.93
2019-02-10T05:02:34.651Z,5.92
2019-02-10T05:05:01.200Z,5.83
2019-02-10T05:07:27.763Z,5.79
2019-02-10T05:09:54.323Z,5.76
2019-02-10T05:12:20.893Z,5.72
2019-02-10T05:14:47.429Z,5.62
2019-02-10T05:17:13.979Z,5.62
2019-02-10T05:19:42.066Z,5.53
2019-02-10T05:22:08.669Z,5.43
2019-02-10T05:24:35.236Z,5.35
2019-02-10T05:27:01.799Z,5.30
2019-02-10T05:29:28.362Z,5.26
2019-02-10T05:31:54.907Z,5.30
2019-02-10T05:34:21.485Z,5.22
2019-02-10T05:36:48.028Z,5.22
2019-02-10T05:39:14.587Z,5.19
2019-02-10T05:41:41.138Z,5.17
2019-02-10T05:44:07.725Z,5.10
2019-02-10T05:46:34.258Z,5.03
2019-02-10T05:49:00.884Z,5.01
2019-02-10T05:51:27.452Z,5.00
2019-02-10T05:53:54.019Z,4.95
2019-02-10T05:56:20.560Z,4.88
2019-02-10T05:58:47.141Z,4.92
2019-02-10T06:01:50.417Z,4.93
2019-02-10T06:04:16.980Z,4.94
2019-02-10T06:06:43.544Z,4.95
2019-02-10T06:09:10.118Z,5.05
2019-02-10T06:11:36.665Z,5.01
2019-02-10T06:14:03.230Z,5.00
2019-02-10T06:16:29.785Z,5.07
2019-02-10T06:18:56.365Z,5.07
2019-02-10T06:21:22.917Z,4.99
2019-02-10T06:23:49.527Z,5.02
2019-02-10T06:26:16.098Z,5.09
2019-02-10T06:28:42.653Z,5.15
2019-02-10T06:31:09.212Z,5.15
2019-02-10T06:33:35.767Z,5.17
2019-02-10T06:36:02.339Z,5.17
2019-02-10T06:38:28.876Z,5.13
2019-02-10T06:40:55.454Z,5.15
2019-02-10T06:43:22.004Z,5.31
2019-02-10T06:45:48.563Z,5.38
2019-02-10T06:48:15.113Z,5.38
2019-02-10T06:50:41.678Z,5.39
2019-02-10T06:53:08.219Z,5.38
2019-02-10T06:55:34.780Z,5.47
2019-02-10T06:58:01.320Z,5.49
2019-02-10T07:00:43.553Z,5.65
2019-02-10T07:03:56.259Z,5.65
2019-02-10T07:06:22.858Z,5.63
2019-02-10T07:08:49.371Z,5.71
2019-02-10T07:11:15.940Z,5.71
2019-02-10T07:13:47.891Z,5.70
2019-02-10T07:16:57.562Z,5.71
2019-02-10T07:20:14.817Z,5.72
2019-02-10T07:23:23.619Z,5.82
2019-02-10T07:25:54.686Z,5.84
2019-02-10T07:28:58.556Z,5.84
2019-02-10T07:31:34.118Z,5.84
2019-02-10T07:34:47.794Z,5.93
2019-02-10T07:38:05.388Z,5.91
2019-02-10T07:41:01.704Z,5.94
2019-02-10T07:43:51.777Z,5.99
2019-02-10T07:46:57.443Z,6.07
2019-02-10T07:50:10.953Z,6.05
2019-02-10T07:53:18.082Z,6.10
2019-02-10T07:56:22.393Z,6.27
2019-02-10T07:59:25.722Z,6.42
2019-02-10T08:02:30.153Z,6.48
2019-02-10T08:05:11.781Z,6.21
2019-02-10T08:08:04.911Z,6.22
2019-02-10T08:11:21.208Z,6.25
2019-02-10T08:14:41.628Z,6.21
2019-02-10T08:17:53.553Z,6.26
2019-02-10T08:21:01.314Z,6.36
2019-02-10T08:24:08.432Z,6.33
2019-02-10T08:27:31.855Z,6.42
2019-02-10T08:30:36.444Z,6.53
2019-02-10T08:33:14.844Z,6.49
2019-02-10T08:36:31.331Z,6.61
2019-02-10T08:39:50.847Z,6.55
2019-02-10T08:42:49.307Z,6.51
2019-02-10T08:45:50.242Z,6.63
2019-02-10T08:48:33.239Z,6.71
2019-02-10T08:51:21.087Z,6.80
2019-02-10T08:53:47.667Z,6.83
2019-02-10T08:56:14.192Z,6.92
2019-02-10T08:58:40.742Z,6.88
2019-02-10T09:01:07.279Z,6.91
2019-02-10T09:03:33.842Z,7.00
2019-02-10T09:06:00.374Z,7.10
2019-02-10T09:08:26.932Z,7.04
2019-02-10T09:10:53.464Z,7.18
2019-02-10T09:13:20.033Z,7.21
2019-02-10T09:15:46.577Z,7.10
2019-02-10T09:18:13.127Z,7.05
2019-02-10T09:20:39.694Z,7.14
2019-02-10T09:23:06.262Z,7.13
2019-02-10T09:25:32.793Z,7.15
2019-02-10T09:27:59.378Z,7.29
2019-02-10T09:30:25.907Z,7.29
2019-02-10T09:32:52.464Z,7.07
2019-02-10T09:35:19.005Z,7.03
2019-02-10T09:37:45.547Z,7.11
2019-02-10T09:40:12.105Z,7.36
2019-02-10T09:42:38.651Z,7.25
2019-02-10T09:45:07.842Z,7.21
2019-02-10T09:47:34.371Z,7.19
2019-02-10T09:50:00.938Z,7.23
2019-02-10T09:52:27.480Z,7.29
2019-02-10T09:54:54.048Z,7.34
2019-02-10T09:57:24.844Z,7.37
2019-02-10T10:00:12.957Z,7.41
2019-02-10T10:02:39.503Z,7.60
2019-02-10T10:05:06.985Z,7.45
2019-02-10T10:07:33.515Z,7.54
2019-02-10T10:10:00.145Z,7.25
2019-02-10T10:12:26.821Z,7.25
2019-02-10T10:14:53.375Z,7.25
2019-02-10T10:17:19.915Z,7.30
2019-02-10T10:19:46.473Z,7.33
2019-02-10T10:22:13.042Z,7.33
2019-02-10T10:24:39.602Z,7.43
2019-02-10T10:27:06.151Z,7.45
2019-02-10T10:29:32.718Z,7.43
2019-02-10T10:31:59.263Z,7.49
2019-02-10T10:34:25.817Z,7.63
2019-02-10T10:36:52.368Z,7.60
2019-02-10T10:39:27.021Z,7.58
2019-02-10T10:41:47.375Z,7.60
2019-02-10T10:44:13.920Z,7.73
2019-02-10T10:46:40.492Z,7.74
2019-02-10T10:49:07.027Z,7.79
2019-02-10T10:51:33.584Z,7.89
2019-02-10T10:54:00.152Z,7.90
2019-02-10T10:56:26.701Z,7.88
2019-02-10T10:58:53.234Z,7.92
2019-02-10T11:01:25.232Z,7.90
2019-02-10T11:03:48.249Z,7.95
2019-02-10T11:06:14.791Z,7.93
2019-02-10T11:08:41.320Z,7.92
2019-02-10T11:11:07.883Z,7.97
2019-02-10T11:13:34.474Z,7.95
2019-02-10T11:16:01.028Z,7.94
2019-02-10T11:18:27.569Z,7.81
2019-02-10T11:20:54.128Z,7.79
2019-02-10T11:23:20.687Z,7.82
2019-02-10T11:25:47.230Z,7.72
2019-02-10T11:28:13.786Z,7.73
2019-02-10T11:30:40.320Z,7.83
2019-02-10T11:33:06.879Z,7.91
2019-02-10T11:35:33.419Z,7.76
2019-02-10T11:37:59.984Z,7.68
2019-02-10T11:40:26.534Z,7.65
2019-02-10T11:42:53.066Z,7.68
2019-02-10T11:45:19.616Z,8.05
2019-02-10T11:47:46.174Z,8.19
2019-02-10T11:50:12.737Z,8.22
2019-02-10T11:52:39.294Z,8.18
2019-02-10T11:55:05.879Z,8.07
2019-02-10T11:57:32.438Z,8.04
2019-02-10T11:59:58.993Z,8.02
2019-02-10T12:02:25.557Z,8.39
2019-02-10T12:04:52.098Z,8.33
2019-02-10T12:07:18.650Z,8.31
2019-02-10T12:09:51.569Z,8.23
2019-02-10T12:12:13.658Z,8.17
2019-02-10T12:14:40.197Z,7.94
2019-02-10T12:17:06.750Z,8.01
2019-02-10T12:19:33.285Z,8.08
2019-02-10T12:21:59.830Z,8.00
2019-02-10T12:24:26.394Z,8.00
2019-02-10T12:26:52.955Z,8.05
2019-02-10T12:29:19.760Z,7.94
2019-02-10T12:31:46.326Z,8.02
2019-02-10T12:34:12.865Z,8.05
2019-02-10T12:36:39.417Z,7.95
2019-02-10T12:39:06.645Z,8.28
2019-02-10T12:41:33.213Z,8.20
2019-02-10T12:43:59.753Z,8.12
2019-02-10T12:46:26.324Z,8.19
2019-02-10T12:48:52.867Z,8.56
2019-02-10T12:51:19.407Z,8.39
2019-02-10T12:53:45.954Z,8.55
2019-02-10T12:56:12.487Z,8.48
2019-02-10T12:58:39.049Z,8.44
2019-02-10T13:01:05.606Z,8.19
2019-02-10T13:03:32.162Z,8.29
2019-02-10T13:05:58.716Z,8.33
2019-02-10T13:08:25.266Z,8.33
2019-02-10T13:10:51.827Z,8.36
2019-02-10T13:13:19.527Z,8.53
2019-02-10T13:15:46.328Z,8.54
2019-02-10T13:18:12.856Z,8.73
2019-02-10T13:20:39.427Z,8.73
2019-02-10T13:23:05.984Z,8.36
2019-02-10T13:25:32.536Z,8.21
2019-02-10T13:27:59.063Z,8.06
2019-02-10T13:30:25.619Z,8.15
2019-02-10T13:32:52.168Z,8.12
2019-02-10T13:35:18.717Z,8.06
2019-02-10T13:37:45.269Z,8.06
2019-02-10T13:40:16.651Z,8.06
2019-02-10T13:42:42.379Z,8.00
2019-02-10T13:45:08.964Z,7.95
2019-02-10T13:47:35.516Z,8.07
2019-02-10T13:50:02.067Z,8.19
2019-02-10T13:52:28.612Z,8.22
2019-02-10T13:54:55.172Z,8.24
2019-02-10T13:57:22.337Z,8.14
2019-02-10T13:59:48.874Z,8.09
2019-02-10T14:02:15.412Z,8.04
2019-02-10T14:04:41.979Z,8.00
2019-02-10T14:07:08.509Z,7.97
2019-02-10T14:09:35.055Z,8.00
2019-02-10T14:12:01.632Z,7.99
2019-02-10T14:14:28.181Z,8.00
2019-02-10T14:16:54.721Z,7.96
2019-02-10T14:19:21.289Z,7.98
2019-02-10T14:21:47.846Z,8.00
2019-02-10T14:24:14.402Z,7.97
2019-02-10T14:26:40.928Z,7.97
2019-02-10T14:29:07.507Z,7.97
2019-02-10T14:31:34.030Z,7.95
2019-02-10T14:34:00.590Z,7.96
2019-02-10T14:36:27.159Z,7.89
2019-02-10T14:38:53.699Z,7.89
2019-02-10T14:41:20.258Z,7.87
2019-02-10T14:43:46.818Z,7.81
2019-02-10T14:46:13.352Z,8.26
2019-02-10T14:48:39.904Z,7.83
2019-02-10T14:51:06.433Z,8.03
2019-02-10T14:53:32.997Z,7.70
2019-02-10T14:55:59.520Z,7.63
2019-02-10T14:58:26.081Z,7.60
2019-02-10T15:00:52.609Z,8.50
2019-02-10T15:03:19.144Z,7.68
2019-02-10T15:05:45.697Z,7.56
2019-02-10T15:08:12.245Z,7.50
2019-02-10T15:10:41.990Z,7.49
2019-02-10T15:13:07.276Z,7.46
2019-02-10T15:15:33.810Z,7.45
2019-02-10T15:18:00.362Z,7.56
2019-02-10T15:20:26.936Z,7.64
2019-02-10T15:22:53.493Z,7.56
2019-02-10T15:25:20.049Z,7.51
2019-02-10T15:27:47.706Z,7.46
2019-02-10T15:30:14.376Z,7.46
2019-02-10T15:32:40.931Z,7.44
2019-02-10T15:35:07.496Z,7.40
2019-02-10T15:37:34.035Z,7.41
2019-02-10T15:40:00.583Z,7.37
2019-02-10T15:42:27.108Z,7.39
2019-02-10T15:44:53.696Z,7.38
2019-02-10T15:47:20.264Z,7.38
2019-02-10T15:49:46.827Z,7.36
2019-02-10T15:52:13.369Z,7.36
2019-02-10T15:54:39.925Z,7.33
2019-02-10T15:57:06.469Z,7.31
2019-02-10T15:59:33.024Z,7.33
2019-02-10T16:01:59.564Z,7.35
2019-02-10T16:04:26.514Z,7.26
2019-02-10T16:06:54.664Z,7.33
2019-02-10T16:09:21.233Z,7.31
2019-02-10T16:11:48.934Z,7.34
2019-02-10T16:14:15.485Z,7.29
2019-02-10T16:16:42.066Z,7.39
2019-02-10T16:19:08.608Z,7.34
2019-02-10T16:21:35.162Z,7.32
2019-02-10T16:24:01.693Z,7.32
2019-02-10T16:26:28.242Z,7.33
2019-02-10T16:28:54.815Z,7.29
2019-02-10T16:31:21.369Z,7.14
2019-02-10T16:33:47.896Z,7.04
2019-02-10T16:36:14.455Z,6.97
2019-02-10T16:38:41.003Z,6.99
2019-02-10T16:41:07.574Z,6.96
2019-02-10T16:43:34.109Z,7.03
2019-02-10T16:46:00.666Z,7.06
2019-02-10T16:48:27.193Z,7.04
2019-02-10T16:50:53.744Z,7.06
2019-02-10T16:53:20.274Z,7.40
2019-02-10T16:55:46.845Z,7.84
2019-02-10T16:58:13.367Z,7.65
2019-02-10T17:00:39.918Z,6.99
2019-02-10T17:03:07.800Z,6.90
2019-02-10T17:05:34.503Z,7.13
2019-02-10T17:08:01.060Z,7.01
2019-02-10T17:10:27.910Z,7.05
2019-02-10T17:12:54.479Z,7.03
2019-02-10T17:15:21.027Z,6.99
2019-02-10T17:17:47.579Z,7.02
2019-02-10T17:20:14.410Z,7.35
2019-02-10T17:22:40.970Z,6.94
2019-02-10T17:25:09.524Z,6.91
2019-02-10T17:27:36.091Z,6.88
2019-02-10T17:30:02.769Z,6.82
2019-02-10T17:32:29.323Z,6.74
2019-02-10T17:34:55.863Z,6.71
2019-02-10T17:37:22.427Z,6.61
2019-02-10T17:39:50.338Z,6.62
2019-02-10T17:42:16.918Z,6.52
2019-02-10T17:44:43.470Z,6.44
2019-02-10T17:47:10.156Z,6.39
2019-02-10T17:49:36.782Z,6.32
2019-02-10T17:52:03.515Z,6.32
2019-02-10T17:54:30.083Z,6.32
2019-02-10T17:57:10.801Z,6.35
2019-02-10T17:59:37.447Z,6.34
2019-02-10T18:02:03.974Z,6.38
2019-02-10T18:04:37.343Z,6.33
2019-02-10T18:06:59.035Z,6.42
2019-02-10T18:09:25.609Z,6.47
2019-02-10T18:11:53.080Z,6.48
2019-02-10T18:14:37.880Z,6.50
2019-02-10T18:17:16.017Z,6.43
2019-02-10T18:19:48.936Z,6.41
2019-02-10T18:22:23.990Z,6.35
2019-02-10T18:25:04.940Z,6.46
2019-02-10T18:27:49.205Z,6.56
2019-02-10T18:30:35.401Z,6.29
2019-02-10T18:33:13.612Z,6.29
2019-02-10T18:35:54.702Z,6.25
2019-02-10T18:38:40.933Z,6.31
2019-02-10T18:41:26.957Z,6.31
2019-02-10T18:44:13.550Z,6.02
2019-02-10T18:47:08.461Z,6.02
2019-02-10T18:50:03.685Z,5.87
2019-02-10T18:52:55.611Z,5.90
2019-02-10T18:55:29.804Z,6.06
2019-02-10T18:58:33.839Z,6.58
2019-02-10T19:01:18.306Z,6.62
2019-02-10T19:04:03.087Z,6.62
2019-02-10T19:06:49.296Z,6.56
2019-02-10T19:09:41.089Z,6.22
2019-02-10T19:12:45.307Z,6.22
2019-02-10T19:15:33.014Z,6.10
2019-02-10T19:18:31.512Z,6.10
2019-02-10T19:21:04.986Z,6.06
2019-02-10T19:23:41.820Z,6.00
2019-02-10T19:26:26.054Z,6.00
2019-02-10T19:29:15.061Z,6.05
2019-02-10T19:31:47.965Z,5.93
2019-02-10T19:34:42.756Z,5.86
2019-02-10T19:37:26.190Z,5.86
2019-02-10T19:40:05.448Z,5.75
2019-02-10T19:42:40.165Z,5.75
2019-02-10T19:45:14.695Z,5.75
2019-02-10T19:48:00.896Z,5.58
2019-02-10T19:50:45.343Z,5.60
2019-02-10T19:53:29.337Z,5.50
2019-02-10T19:56:14.446Z,5.26
2019-02-10T19:58:48.982Z,4.98
2019-02-10T20:01:35.156Z,4.81
2019-02-10T20:04:20.044Z,4.88
2019-02-10T20:06:51.990Z,4.74
2019-02-10T20:09:30.729Z,4.60
2019-02-10T20:12:19.541Z,4.78
2019-02-10T20:15:06.189Z,4.77
2019-02-10T20:17:54.486Z,4.57
2019-02-10T20:20:38.954Z,4.31
2019-02-10T20:23:18.402Z,4.46
2019-02-10T20:26:04.623Z,4.37
2019-02-10T20:28:42.503Z,4.39
2019-02-10T20:31:20.993Z,4.43
2019-02-10T20:34:05.903Z,4.50
2019-02-10T20:36:49.880Z,4.42
2019-02-10T20:39:24.778Z,4.35
2019-02-10T20:41:58.298Z,4.40
2019-02-10T20:44:38.221Z,4.51
2019-02-10T20:47:23.180Z,4.52
2019-02-10T20:50:02.606Z,4.57
2019-02-10T20:52:46.380Z,4.53
2019-02-10T20:55:20.653Z,4.47
2019-02-10T20:57:55.782Z,4.39
2019-02-10T21:00:46.221Z,4.38
2019-02-10T21:03:19.297Z,4.26
2019-02-10T21:06:23.737Z,4.36
2019-02-10T21:09:14.798Z,4.31
2019-02-10T21:12:03.478Z,4.22
2019-02-10T21:14:56.231Z,4.17
2019-02-10T21:17:35.382Z,4.20
2019-02-10T21:20:27.140Z,4.14
2019-02-10T21:23:13.370Z,4.28
2019-02-10T21:25:57.138Z,4.17
2019-02-10T21:28:46.155Z,4.02
2019-02-10T21:31:47.421Z,4.09
2019-02-10T21:34:20.820Z,4.05
2019-02-10T21:37:11.049Z,3.97
2019-02-10T21:39:57.256Z,3.97
2019-02-10T21:42:31.852Z,3.97
2019-02-10T21:45:14.133Z,3.94
2019-02-10T21:47:44.686Z,3.92
2019-02-10T21:50:11.222Z,3.92
2019-02-10T21:52:37.790Z,3.85
2019-02-10T21:55:04.950Z,3.81
2019-02-10T21:57:31.523Z,3.74
2019-02-10T21:59:58.067Z,3.79
2019-02-10T22:02:24.641Z,3.89
2019-02-10T22:04:51.184Z,3.87
2019-02-10T22:07:17.848Z,3.85
2019-02-10T22:09:44.391Z,3.90
2019-02-10T22:12:10.977Z,3.93
2019-02-10T22:14:37.511Z,3.84
2019-02-10T22:17:04.080Z,3.87
2019-02-10T22:19:30.624Z,3.91
2019-02-10T22:21:57.205Z,3.87
2019-02-10T22:24:23.753Z,3.92
2019-02-10T22:26:50.320Z,3.91
2019-02-10T22:29:16.865Z,3.96
2019-02-10T22:31:43.457Z,3.93
2019-02-10T22:34:09.992Z,3.94
2019-02-10T22:36:36.537Z,3.79
2019-02-10T22:39:04.174Z,3.86
2019-02-10T22:41:30.711Z,3.88
2019-02-10T22:43:57.269Z,3.87
2019-02-10T22:46:23.814Z,3.87
2019-02-10T22:48:50.374Z,3.87
2019-02-10T22:51:16.923Z,3.93
2019-02-10T22:53:43.497Z,4.03
2019-02-10T22:56:10.060Z,4.03
2019-02-10T22:58:36.625Z,3.78
2019-02-10T23:01:04.342Z,3.70
2019-02-10T23:03:30.915Z,3.85
2019-02-10T23:05:57.469Z,3.65
2019-02-10T23:08:24.034Z,3.73
2019-02-10T23:10:51.991Z,3.77
2019-02-10T23:13:18.767Z,3.94
2019-02-10T23:15:45.347Z,3.85
2019-02-10T23:18:11.906Z,3.85
2019-02-10T23:20:38.481Z,3.72
2019-02-10T23:23:05.044Z,3.72
2019-02-10T23:25:31.596Z,3.55
2019-02-10T23:27:58.130Z,3.62
2019-02-10T23:30:24.711Z,3.60
2019-02-10T23:32:51.298Z,3.66
2019-02-10T23:35:17.852Z,3.61
2019-02-10T23:37:44.396Z,3.61
2019-02-10T23:40:11.113Z,3.71
2019-02-10T23:42:37.651Z,3.69
2019-02-10T23:45:04.285Z,3.66
2019-02-10T23:47:30.835Z,3.72
2019-02-10T23:49:57.389Z,3.69
2019-02-10T23:52:23.938Z,3.70
2019-02-10T23:54:50.509Z,3.74
2019-02-10T23:57:17.061Z,3.78
2019-02-10T23:59:43.995Z,3.80
